»·PEaware :: N360BG KSMF-KLAS

N360BG :: KSMF-KLAS

FLIGHT INFORMATION

Flight Status: Arrived
Operator: Privately registered:
United States
More flights under this callsign
Pilot: Brandon G. (13)
Aircraft: BOEING 757-200
(B752)
More flights by this aircraft type
Origin: KSMF Sacramento Intl
United States
Destination: KLAS McCarran Intl
United States
More flights between these airports :: More routes between these airports
Route: SCTWN2 DOSCO OAL LIDAT BTY SUNST4
File this flight plan on PilotEdge
Remarks:
Altitude:
(Current/Filed)
39,000ft
Speed:
(Current/Filed)
425kts
Departed: 13-Sep-17 08:40 PM
Arrived: 13-Sep-17 09:42 PM
Distance/Time
Traveled:
344nm/1:02
Distance/Time
To Go:
Arrived

Flight Plot

Page will automatically refresh every two minutes.

Flight plan parsing failed; only flown route is shown


Map Options




Map Legend


Flown Route
Filed Route
Departure Airport
Arrival Airport
Navaid (VOR, NDB)
Fix

Horizontal Profiles

Position Reports

Time Latitude Longitude Heading Altitude Ground
Speed
13-Sep-17 20:25 38.681233 -121.597007 269 28ft 0kts
13-Sep-17 20:26 38.681233 -121.597007 269 28ft 0kts
13-Sep-17 20:27 38.681233 -121.597007 269 28ft 0kts
13-Sep-17 20:28 38.681233 -121.597007 269 28ft 0kts
13-Sep-17 20:29 38.681233 -121.597007 269 28ft 0kts
13-Sep-17 20:30 38.681233 -121.597007 269 28ft 0kts
13-Sep-17 20:31 38.681233 -121.597007 269 28ft 0kts
13-Sep-17 20:32 38.681233 -121.597007 269 28ft 0kts
13-Sep-17 20:33 38.681233 -121.597007 269 28ft 0kts
13-Sep-17 20:34 38.681233 -121.597007 268 28ft 0kts
13-Sep-17 20:35 38.681363 -121.597372 299 28ft 5kts
13-Sep-17 20:36 38.681671 -121.598546 283 28ft 7kts
13-Sep-17 20:37 38.684564 -121.598809 1 28ft 13kts
13-Sep-17 20:38 38.688864 -121.598744 1 30ft 16kts
13-Sep-17 20:39 38.694063 -121.598669 1 31ft 20kts
13-Sep-17 20:40 38.701646 -121.598543 0 31ft 26kts
13-Sep-17 20:41 38.707164 -121.599171 277 31ft 17kts
13-Sep-17 20:42 38.707185 -121.599500 272 31ft 0kts
13-Sep-17 20:43 38.707191 -121.599711 271 31ft 6kts
13-Sep-17 20:44 38.688263 -121.600772 165 513ft 174kts
13-Sep-17 20:45 38.664999 -121.531473 113 4212ft 252kts
13-Sep-17 20:46 38.633198 -121.451621 108 8794ft 269kts
13-Sep-17 20:47 38.617136 -121.351456 101 11995ft 324kts
13-Sep-17 20:48 38.599323 -121.232283 101 14642ft 385kts
13-Sep-17 20:49 38.579093 -121.096045 101 18338ft 404kts
13-Sep-17 20:50 38.555996 -120.954310 100 21476ft 422kts
13-Sep-17 20:51 38.532634 -120.806857 99 24153ft 441kts
13-Sep-17 20:52 38.509002 -120.651937 98 26595ft 455kts
13-Sep-17 20:53 38.483115 -120.492328 99 28721ft 469kts
13-Sep-17 20:54 38.457283 -120.333333 99 30692ft 479kts
13-Sep-17 20:55 38.431419 -120.168148 100 32949ft 478kts
13-Sep-17 20:56 38.403197 -120.003763 101 35085ft 476kts
13-Sep-17 20:57 38.377068 -119.841081 99 36991ft 475kts
13-Sep-17 20:58 38.348543 -119.680147 102 38678ft 474kts
13-Sep-17 20:59 38.320262 -119.518018 102 39154ft 475kts
13-Sep-17 21:00 38.293084 -119.355823 102 39155ft 474kts
13-Sep-17 21:01 38.265278 -119.195834 102 39148ft 476kts
13-Sep-17 21:02 38.236626 -119.033095 103 39146ft 475kts
13-Sep-17 21:03 38.207867 -118.871349 103 39052ft 472kts
13-Sep-17 21:04 38.179083 -118.709678 104 39008ft 473kts
13-Sep-17 21:05 38.148871 -118.547965 104 39008ft 472kts
13-Sep-17 21:06 38.120090 -118.387221 104 39009ft 472kts
13-Sep-17 21:07 38.090675 -118.230049 105 39006ft 472kts
13-Sep-17 21:08 38.060435 -118.068759 106 39007ft 473kts
13-Sep-17 21:09 38.030243 -117.907454 106 38940ft 472kts
13-Sep-17 21:10 37.976185 -117.760365 135 39038ft 462kts
13-Sep-17 21:11 37.880928 -117.664833 147 39041ft 455kts
13-Sep-17 21:12 37.777276 -117.574134 148 39039ft 454kts
13-Sep-17 21:13 37.673720 -117.485161 148 39038ft 452kts
13-Sep-17 21:14 37.569961 -117.396307 148 39038ft 452kts
13-Sep-17 21:15 37.468265 -117.309508 149 39034ft 452kts
13-Sep-17 21:16 37.364638 -117.221306 149 39034ft 451kts
13-Sep-17 21:17 37.260803 -117.133310 149 39033ft 451kts
13-Sep-17 21:18 37.157392 -117.045927 150 39033ft 451kts
13-Sep-17 21:19 37.054171 -116.959003 149 37337ft 446kts
13-Sep-17 21:20 36.952687 -116.873098 149 34690ft 442kts
13-Sep-17 21:21 36.853686 -116.790062 149 31907ft 433kts
13-Sep-17 21:22 36.763113 -116.690973 136 29754ft 447kts
13-Sep-17 21:23 36.683300 -116.576206 135 27534ft 434kts
13-Sep-17 21:24 36.606047 -116.465687 135 25380ft 420kts
13-Sep-17 21:25 36.533796 -116.363262 135 23398ft 408kts
13-Sep-17 21:26 36.480341 -116.288953 135 21966ft 399kts
13-Sep-17 21:27 36.408465 -116.186871 135 20068ft 389kts
13-Sep-17 21:28 36.337676 -116.088560 135 18258ft 378kts
13-Sep-17 21:29 36.269457 -115.993210 134 16697ft 370kts
13-Sep-17 21:30 36.206188 -115.904345 129 16005ft 310kts
13-Sep-17 21:31 36.172052 -115.807213 116 15529ft 308kts
13-Sep-17 21:32 36.140450 -115.709385 115 14980ft 308kts
13-Sep-17 21:33 36.109224 -115.612632 115 14251ft 305kts
13-Sep-17 21:34 36.094031 -115.510287 101 12892ft 302kts
13-Sep-17 21:35 36.082885 -115.409145 101 11486ft 298kts
13-Sep-17 21:36 36.071629 -115.311363 101 10246ft 289kts
13-Sep-17 21:37 36.061936 -115.224680 101 9768ft 233kts
13-Sep-17 21:38 36.053285 -115.145929 101 8340ft 232kts
13-Sep-17 21:39 36.044474 -115.067957 101 7011ft 228kts
13-Sep-17 21:40 36.051690 -114.995108 34 5664ft 233kts
13-Sep-17 21:41 36.109138 -114.987797 332 4960ft 199kts
13-Sep-17 21:42 36.129364 -115.045618 281 4819ft 181kts
13-Sep-17 21:43 36.140546 -115.103270 279 3797ft 164kts
13-Sep-17 21:44 36.120399 -115.143865 214 2832ft 138kts
13-Sep-17 21:45 36.088027 -115.163146 205 2138ft 84kts
13-Sep-17 21:46 36.083801 -115.166584 239 2159ft 0kts
13-Sep-17 21:47 36.085609 -115.166082 19 2154ft 30kts
13-Sep-17 21:48 36.094483 -115.161789 266 2116ft 14kts
13-Sep-17 21:49 36.098582 -115.161069 74 2109ft 0kts

Navigation Log

Ident Type
Flight plan parsing failed, navigation log unavailable